createdAt,value
2019-04-25T00:01:43.916Z,3.00
2019-04-25T00:04:13.961Z,3.20
2019-04-25T00:06:43.871Z,3.17
2019-04-25T00:09:16.359Z,2.47
2019-04-25T00:11:47.760Z,2.43
2019-04-25T00:14:16.990Z,2.67
2019-04-25T00:16:47.093Z,2.73
2019-04-25T00:19:15.893Z,2.97
2019-04-25T00:22:09.774Z,2.50
2019-04-25T00:24:46.178Z,2.67
2019-04-25T00:27:15.116Z,2.47
2019-04-25T00:29:45.706Z,2.43
2019-04-25T00:32:14.522Z,2.47
2019-04-25T00:34:44.336Z,2.50
2019-04-25T00:37:14.018Z,2.13
2019-04-25T00:39:44.779Z,2.17
2019-04-25T00:42:13.483Z,2.40
2019-04-25T00:44:44.707Z,2.50
2019-04-25T00:47:12.970Z,2.33
2019-04-25T00:49:43.252Z,2.13
2019-04-25T00:52:12.256Z,2.10
2019-04-25T00:54:41.381Z,2.80
2019-04-25T00:57:12.178Z,2.43
2019-04-25T00:59:47.022Z,2.40
2019-04-25T01:02:24.876Z,2.17
2019-04-25T01:04:54.201Z,2.60
2019-04-25T01:07:23.156Z,2.60
2019-04-25T01:09:53.618Z,1.90
2019-04-25T01:12:23.246Z,2.30
2019-04-25T01:14:52.828Z,2.27
2019-04-25T01:17:22.945Z,2.17
2019-04-25T01:19:51.711Z,2.30
2019-04-25T01:22:20.376Z,2.40
2019-04-25T01:24:49.391Z,2.00
2019-04-25T01:27:18.581Z,2.33
2019-04-25T01:29:47.856Z,2.10
2019-04-25T01:32:19.866Z,2.30
2019-04-25T01:35:05.619Z,2.60
2019-04-25T01:38:08.543Z,2.50
2019-04-25T01:40:49.729Z,2.13
2019-04-25T01:43:37.546Z,2.03
2019-04-25T01:46:06.692Z,2.30
2019-04-25T01:48:35.592Z,2.10
2019-04-25T01:51:04.735Z,2.37
2019-04-25T01:53:33.878Z,1.70
2019-04-25T01:56:07.579Z,2.10
2019-04-25T01:58:34.850Z,2.07
2019-04-25T02:01:04.627Z,2.10
2019-04-25T02:03:34.354Z,2.30
2019-04-25T02:06:05.063Z,2.03
2019-04-25T02:08:34.060Z,2.00
2019-04-25T02:11:17.766Z,2.20
2019-04-25T02:13:46.662Z,2.30
2019-04-25T02:16:15.731Z,2.10
2019-04-25T02:18:44.878Z,2.00
2019-04-25T02:21:13.810Z,2.40
2019-04-25T02:23:44.138Z,1.97
2019-04-25T02:26:16.727Z,2.20
2019-04-25T02:28:43.828Z,2.17
2019-04-25T02:31:17.615Z,2.10
2019-04-25T02:33:44.403Z,2.20
2019-04-25T02:36:15.062Z,2.17
2019-04-25T02:38:44.291Z,2.03
2019-04-25T02:41:14.756Z,2.10
2019-04-25T02:43:45.014Z,2.10
2019-04-25T02:46:40.531Z,2.40
2019-04-25T02:49:39.389Z,2.40
2019-04-25T02:52:20.591Z,2.07
2019-04-25T02:54:49.721Z,2.60
2019-04-25T02:57:18.851Z,2.20
2019-04-25T02:59:47.526Z,2.37
2019-04-25T03:02:16.790Z,2.40
2019-04-25T03:04:45.427Z,2.03
2019-04-25T03:07:17.580Z,2.77
2019-04-25T03:09:45.386Z,2.10
2019-04-25T03:12:26.624Z,2.30
2019-04-25T03:14:44.923Z,2.40
2019-04-25T03:17:14.279Z,2.10
2019-04-25T03:20:14.108Z,2.10
2019-04-25T03:22:44.291Z,2.10
2019-04-25T03:25:16.460Z,2.07
2019-04-25T03:27:44.170Z,2.33
2019-04-25T03:30:16.606Z,2.10
2019-04-25T03:32:45.114Z,2.20
2019-04-25T03:35:14.478Z,2.10
2019-04-25T03:37:43.632Z,2.20
2019-04-25T03:40:14.000Z,2.20
2019-04-25T03:42:43.903Z,1.90
2019-04-25T03:45:13.981Z,2.37
2019-04-25T03:47:43.272Z,2.20
2019-04-25T03:50:13.785Z,2.27
2019-04-25T03:52:43.570Z,2.20
2019-04-25T03:55:12.458Z,2.23
2019-04-25T03:57:41.105Z,2.30
2019-04-25T04:00:10.722Z,2.10
2019-04-25T04:02:39.730Z,1.97
2019-04-25T04:05:09.516Z,1.90
2019-04-25T04:07:38.550Z,1.87
2019-04-25T04:10:07.984Z,1.87
2019-04-25T04:12:37.187Z,2.10
2019-04-25T04:15:06.970Z,1.90
2019-04-25T04:17:53.605Z,2.37
2019-04-25T04:20:38.758Z,2.00
2019-04-25T04:23:33.118Z,2.30
2019-04-25T04:26:03.304Z,2.33
2019-04-25T04:28:33.637Z,2.23
2019-04-25T04:31:03.678Z,1.90
2019-04-25T04:33:34.545Z,1.90
2019-04-25T04:36:03.891Z,2.33
2019-04-25T04:38:34.138Z,2.00
2019-04-25T04:41:03.949Z,1.90
2019-04-25T04:43:34.190Z,2.10
2019-04-25T04:46:03.940Z,2.03
2019-04-25T04:48:34.226Z,2.00
2019-04-25T04:51:03.423Z,1.80
2019-04-25T04:53:35.584Z,2.10
2019-04-25T04:56:04.172Z,1.90
2019-04-25T04:58:34.306Z,2.10
2019-04-25T05:01:03.693Z,2.13
2019-04-25T05:04:00.610Z,1.60
2019-04-25T05:06:38.367Z,2.07
2019-04-25T05:09:15.637Z,1.83
2019-04-25T05:11:45.089Z,1.73
2019-04-25T05:14:15.344Z,1.80
2019-04-25T05:16:45.313Z,1.80
2019-04-25T05:19:15.305Z,1.73
2019-04-25T05:21:45.634Z,1.80
2019-04-25T05:24:16.017Z,1.80
2019-04-25T05:26:45.161Z,1.60
2019-04-25T05:29:17.484Z,1.60
2019-04-25T05:31:47.501Z,1.90
2019-04-25T05:34:17.198Z,1.87
2019-04-25T05:36:47.293Z,1.90
2019-04-25T05:39:17.787Z,1.53
2019-04-25T05:42:07.313Z,1.60
2019-04-25T05:44:34.730Z,1.60
2019-04-25T05:47:04.172Z,1.80
2019-04-25T05:49:34.243Z,1.70
2019-04-25T05:52:04.041Z,1.30
2019-04-25T05:54:34.392Z,1.50
2019-04-25T05:57:03.716Z,1.60
2019-04-25T05:59:33.732Z,1.47
2019-04-25T06:02:03.933Z,1.50
2019-04-25T06:04:33.587Z,1.60
2019-04-25T06:07:02.282Z,1.43
2019-04-25T06:09:54.448Z,1.33
2019-04-25T06:12:29.577Z,1.37
2019-04-25T06:14:58.185Z,1.43
2019-04-25T06:17:37.625Z,1.50
2019-04-25T06:20:07.645Z,1.50
2019-04-25T06:22:54.246Z,1.33
2019-04-25T06:25:29.784Z,1.40
2019-04-25T06:27:59.086Z,1.77
2019-04-25T06:30:29.643Z,1.37
2019-04-25T06:32:58.326Z,1.33
2019-04-25T06:35:27.595Z,1.37
2019-04-25T06:37:56.280Z,1.27
2019-04-25T06:40:25.207Z,1.33
2019-04-25T06:42:55.269Z,1.70
2019-04-25T06:45:34.424Z,1.20
2019-04-25T06:48:23.148Z,1.30
2019-04-25T06:50:53.778Z,1.10
2019-04-25T06:53:24.749Z,1.17
2019-04-25T06:55:53.631Z,1.50
2019-04-25T06:58:26.914Z,1.40
2019-04-25T07:00:58.880Z,1.30
2019-04-25T07:03:25.135Z,1.20
2019-04-25T07:05:54.670Z,1.20
2019-04-25T07:08:25.508Z,1.00
2019-04-25T07:10:55.276Z,1.30
2019-04-25T07:13:25.610Z,1.30
2019-04-25T07:15:54.884Z,1.40
2019-04-25T07:18:29.224Z,1.60
2019-04-25T07:20:54.318Z,1.10
2019-04-25T07:23:23.624Z,1.40
2019-04-25T07:25:59.729Z,1.30
2019-04-25T07:28:36.878Z,1.20
2019-04-25T07:31:25.023Z,1.10
2019-04-25T07:34:08.209Z,1.17
2019-04-25T07:36:37.338Z,1.30
2019-04-25T07:39:10.589Z,1.20
2019-04-25T07:41:38.798Z,1.00
2019-04-25T07:44:07.416Z,1.30
2019-04-25T07:46:39.358Z,1.20
2019-04-25T07:49:06.374Z,1.13
2019-04-25T07:51:35.538Z,0.90
2019-04-25T07:54:04.589Z,1.10
2019-04-25T07:56:35.177Z,1.00
2019-04-25T07:59:03.894Z,1.10
2019-04-25T08:01:33.764Z,1.40
2019-04-25T08:04:03.558Z,1.20
2019-04-25T08:06:33.393Z,1.00
2019-04-25T08:09:04.074Z,1.30
2019-04-25T08:11:34.180Z,1.13
2019-04-25T08:14:14.472Z,1.10
2019-04-25T08:16:44.499Z,1.03
2019-04-25T08:19:13.642Z,0.90
2019-04-25T08:21:43.932Z,1.07
2019-04-25T08:24:13.961Z,1.30
2019-04-25T08:26:43.654Z,1.40
2019-04-25T08:29:13.329Z,1.20
2019-04-25T08:31:43.929Z,1.07
2019-04-25T08:34:14.482Z,1.10
2019-04-25T08:36:45.444Z,1.20
2019-04-25T08:39:14.712Z,1.37
2019-04-25T08:41:45.444Z,1.03
2019-04-25T08:44:14.922Z,1.43
2019-04-25T08:46:44.626Z,1.10
2019-04-25T08:49:31.839Z,1.00
2019-04-25T08:52:01.098Z,1.20
2019-04-25T08:54:42.220Z,1.30
2019-04-25T08:57:15.385Z,1.00
2019-04-25T08:59:52.718Z,1.00
2019-04-25T09:02:39.234Z,1.40
2019-04-25T09:05:24.336Z,1.10
2019-04-25T09:07:54.348Z,1.00
2019-04-25T09:10:23.801Z,1.10
2019-04-25T09:12:53.724Z,1.00
2019-04-25T09:15:24.127Z,1.00
2019-04-25T09:17:54.665Z,1.30
2019-04-25T09:20:23.919Z,1.20
2019-04-25T09:22:54.285Z,1.17
2019-04-25T09:25:23.831Z,1.37
2019-04-25T09:27:54.150Z,1.60
2019-04-25T09:30:24.054Z,1.30
2019-04-25T09:32:53.439Z,1.10
2019-04-25T09:35:23.602Z,1.00
2019-04-25T09:37:53.544Z,1.20
2019-04-25T09:40:23.980Z,1.30
2019-04-25T09:42:53.744Z,1.13
2019-04-25T09:45:47.331Z,1.23
2019-04-25T09:48:37.513Z,1.53
2019-04-25T09:51:20.179Z,0.90
2019-04-25T09:53:51.824Z,1.07
2019-04-25T09:56:28.722Z,1.13
2019-04-25T09:59:07.483Z,1.30
2019-04-25T10:01:36.526Z,1.17
2019-04-25T10:04:05.322Z,1.20
2019-04-25T10:06:33.949Z,0.93
2019-04-25T10:09:02.549Z,1.10
2019-04-25T10:11:31.209Z,1.03
2019-04-25T10:14:14.738Z,1.13
2019-04-25T10:16:44.470Z,1.30
2019-04-25T10:19:14.123Z,1.07
2019-04-25T10:21:43.273Z,1.27
2019-04-25T10:24:13.609Z,1.50
2019-04-25T10:26:44.071Z,1.00
2019-04-25T10:29:13.198Z,1.10
2019-04-25T10:31:43.995Z,0.90
2019-04-25T10:34:14.059Z,1.00
2019-04-25T10:36:45.283Z,1.00
2019-04-25T10:39:14.617Z,1.30
2019-04-25T10:41:46.160Z,1.00
2019-04-25T10:44:14.346Z,1.17
2019-04-25T10:46:46.915Z,0.90
2019-04-25T10:49:14.503Z,1.07
2019-04-25T10:51:44.685Z,1.20
2019-04-25T10:54:14.758Z,1.10
2019-04-25T10:56:45.524Z,1.07
2019-04-25T10:59:14.434Z,0.90
2019-04-25T11:01:45.072Z,1.10
2019-04-25T11:04:20.625Z,1.20
2019-04-25T11:06:49.378Z,1.20
2019-04-25T11:09:24.292Z,1.03
2019-04-25T11:11:53.469Z,1.30
2019-04-25T11:14:23.778Z,1.17
2019-04-25T11:16:55.062Z,0.90
2019-04-25T11:19:23.953Z,1.00
2019-04-25T11:21:53.789Z,1.00
2019-04-25T11:24:23.809Z,1.00
2019-04-25T11:26:55.087Z,1.33
2019-04-25T11:29:24.053Z,1.10
2019-04-25T11:31:53.446Z,1.10
2019-04-25T11:34:22.828Z,0.90
2019-04-25T11:36:51.944Z,0.80
2019-04-25T11:39:52.639Z,0.70
2019-04-25T11:42:23.298Z,0.87
2019-04-25T11:44:52.716Z,0.80
2019-04-25T11:47:24.182Z,1.00
2019-04-25T11:49:54.564Z,1.00
2019-04-25T11:52:28.294Z,0.90
2019-04-25T11:54:54.789Z,0.80
2019-04-25T11:57:24.570Z,1.20
2019-04-25T11:59:54.565Z,1.00
2019-04-25T12:02:25.489Z,0.80
2019-04-25T12:04:55.254Z,0.70
2019-04-25T12:07:24.036Z,0.73
2019-04-25T12:09:54.123Z,0.90
2019-04-25T12:12:23.621Z,0.90
2019-04-25T12:14:54.038Z,0.80
2019-04-25T12:17:23.398Z,0.73
2019-04-25T12:19:54.649Z,0.80
2019-04-25T12:22:23.837Z,0.90
2019-04-25T12:24:54.341Z,1.10
2019-04-25T12:27:23.190Z,1.03
2019-04-25T12:29:52.470Z,1.20
2019-04-25T12:32:21.446Z,0.80
2019-04-25T12:34:51.574Z,1.00
2019-04-25T12:37:21.054Z,0.73
2019-04-25T12:39:49.715Z,0.83
2019-04-25T12:42:18.851Z,0.80
2019-04-25T12:44:57.037Z,0.80
2019-04-25T12:47:27.146Z,0.90
2019-04-25T12:49:56.325Z,0.80
2019-04-25T12:52:25.214Z,0.77
2019-04-25T12:54:57.203Z,0.97
2019-04-25T12:57:25.558Z,0.70
2019-04-25T12:59:55.434Z,0.70
2019-04-25T13:02:24.442Z,0.90
2019-04-25T13:04:55.222Z,0.60
2019-04-25T13:07:24.010Z,0.80
2019-04-25T13:09:53.700Z,0.90
2019-04-25T13:12:23.421Z,0.70
2019-04-25T13:14:52.481Z,0.70
2019-04-25T13:17:21.917Z,0.80
2019-04-25T13:19:50.620Z,0.70
2019-04-25T13:22:19.599Z,0.80
2019-04-25T13:24:48.482Z,0.60
2019-04-25T13:27:26.812Z,0.60
2019-04-25T13:30:14.005Z,0.70
2019-04-25T13:33:08.612Z,1.00
2019-04-25T13:35:47.753Z,0.60
2019-04-25T13:38:16.894Z,0.60
2019-04-25T13:40:45.518Z,0.87
2019-04-25T13:43:14.401Z,0.80
2019-04-25T13:45:43.458Z,0.67
2019-04-25T13:48:13.208Z,0.60
2019-04-25T13:50:42.225Z,0.53
2019-04-25T13:53:10.855Z,0.50
2019-04-25T13:55:40.042Z,0.70
2019-04-25T13:58:09.373Z,0.70
2019-04-25T14:00:38.358Z,0.70
2019-04-25T14:03:07.562Z,0.67
2019-04-25T14:05:36.281Z,0.60
2019-04-25T14:08:05.246Z,0.80
2019-04-25T14:10:34.361Z,0.60
2019-04-25T14:13:04.253Z,0.60
2019-04-25T14:15:34.364Z,0.80
2019-04-25T14:18:17.477Z,0.70
2019-04-25T14:20:50.479Z,0.70
2019-04-25T14:23:20.592Z,0.60
2019-04-25T14:25:49.637Z,0.60
2019-04-25T14:28:18.735Z,0.70
2019-04-25T14:30:47.730Z,0.70
2019-04-25T14:33:16.920Z,0.93
2019-04-25T14:35:46.053Z,0.70
2019-04-25T14:38:15.237Z,0.80
2019-04-25T14:40:44.443Z,0.60
2019-04-25T14:43:13.673Z,0.70
2019-04-25T14:45:44.954Z,0.77
2019-04-25T14:48:13.430Z,0.60
2019-04-25T14:50:42.895Z,0.87
2019-04-25T14:53:11.866Z,0.60
2019-04-25T14:55:57.950Z,0.60
2019-04-25T14:58:30.312Z,0.70
2019-04-25T15:00:59.122Z,0.70
2019-04-25T15:03:27.765Z,0.63
2019-04-25T15:05:57.143Z,0.60
2019-04-25T15:08:26.583Z,0.57
2019-04-25T15:10:55.466Z,0.70
2019-04-25T15:13:24.350Z,0.83
2019-04-25T15:15:53.462Z,0.67
2019-04-25T15:18:23.415Z,0.70
2019-04-25T15:20:52.540Z,0.70
2019-04-25T15:23:21.413Z,0.60
2019-04-25T15:25:50.842Z,0.70
2019-04-25T15:28:19.986Z,0.67
2019-04-25T15:30:49.107Z,0.60
2019-04-25T15:33:18.342Z,0.67
2019-04-25T15:36:01.644Z,0.70
2019-04-25T15:38:37.593Z,0.63
2019-04-25T15:41:31.893Z,0.70
2019-04-25T15:44:35.646Z,0.70
2019-04-25T15:47:05.958Z,0.70
2019-04-25T15:49:34.918Z,0.70
2019-04-25T15:52:04.581Z,0.60
2019-04-25T15:54:33.865Z,0.80
2019-04-25T15:57:02.932Z,0.77
2019-04-25T15:59:31.626Z,0.73
2019-04-25T16:02:07.977Z,0.80
2019-04-25T16:04:31.178Z,0.80
2019-04-25T16:07:00.566Z,0.90
2019-04-25T16:09:29.766Z,0.60
2019-04-25T16:11:58.682Z,0.77
2019-04-25T16:14:31.289Z,0.60
2019-04-25T16:17:00.036Z,0.70
2019-04-25T16:19:29.569Z,0.77
2019-04-25T16:21:58.265Z,0.70
2019-04-25T16:24:27.953Z,0.80
2019-04-25T16:26:58.094Z,0.67
2019-04-25T16:29:27.803Z,0.67
2019-04-25T16:31:58.626Z,0.70
2019-04-25T16:34:28.457Z,0.70
2019-04-25T16:36:57.250Z,0.70
2019-04-25T16:39:26.538Z,0.70
2019-04-25T16:41:55.174Z,0.80
2019-04-25T16:44:23.875Z,0.97
2019-04-25T16:46:52.761Z,0.80
2019-04-25T16:49:21.378Z,1.00
2019-04-25T16:51:50.502Z,0.77
2019-04-25T16:54:19.157Z,0.93
2019-04-25T16:56:47.793Z,0.73
2019-04-25T16:59:16.415Z,0.80
2019-04-25T17:01:45.075Z,1.20
2019-04-25T17:04:13.966Z,1.10
2019-04-25T17:06:42.917Z,0.70
2019-04-25T17:09:11.549Z,0.70
2019-04-25T17:11:40.430Z,0.73
2019-04-25T17:14:17.399Z,0.90
2019-04-25T17:17:20.121Z,0.90
2019-04-25T17:20:00.326Z,0.60
2019-04-25T17:22:30.734Z,0.70
2019-04-25T17:24:59.741Z,0.70
2019-04-25T17:27:28.705Z,0.80
2019-04-25T17:29:57.484Z,0.90
2019-04-25T17:32:50.326Z,0.80
2019-04-25T17:35:35.077Z,0.80
2019-04-25T17:38:07.309Z,0.80
2019-04-25T17:40:35.952Z,0.73
2019-04-25T17:43:10.861Z,0.80
2019-04-25T17:45:35.226Z,0.80
2019-04-25T17:48:04.114Z,0.80
2019-04-25T17:50:34.167Z,0.80
2019-04-25T17:53:03.226Z,0.90
2019-04-25T17:55:33.181Z,0.80
2019-04-25T17:58:02.394Z,0.90
2019-04-25T18:00:42.115Z,0.80
2019-04-25T18:03:11.642Z,0.80
2019-04-25T18:05:41.394Z,0.90
2019-04-25T18:08:10.418Z,0.97
2019-04-25T18:10:39.314Z,0.90
2019-04-25T18:13:09.504Z,1.17
2019-04-25T18:16:00.262Z,0.80
2019-04-25T18:18:54.112Z,0.90
2019-04-25T18:21:23.481Z,0.90
2019-04-25T18:24:29.445Z,0.73
2019-04-25T18:27:06.910Z,0.90
2019-04-25T18:29:36.055Z,0.80
2019-04-25T18:32:04.738Z,0.83
2019-04-25T18:34:38.753Z,0.77
2019-04-25T18:37:18.304Z,0.70
2019-04-25T18:39:59.633Z,0.70
2019-04-25T18:42:37.924Z,1.03
2019-04-25T18:45:07.487Z,0.83
2019-04-25T18:47:36.956Z,1.03
2019-04-25T18:50:06.056Z,1.00
2019-04-25T18:53:12.121Z,0.77
2019-04-25T18:55:56.557Z,0.87
2019-04-25T18:58:46.143Z,1.00
2019-04-25T19:01:30.263Z,1.00
2019-04-25T19:04:12.226Z,0.63
2019-04-25T19:06:54.620Z,1.00
2019-04-25T19:09:11.850Z,0.90
2019-04-25T19:11:40.954Z,0.80
2019-04-25T19:14:09.870Z,0.83
2019-04-25T19:16:38.816Z,1.20
2019-04-25T19:19:08.455Z,1.00
2019-04-25T19:21:37.102Z,0.80
2019-04-25T19:24:07.254Z,1.03
2019-04-25T19:26:36.182Z,0.77
2019-04-25T19:29:04.866Z,0.90
2019-04-25T19:31:33.589Z,1.20
2019-04-25T19:34:02.242Z,0.90
2019-04-25T19:36:31.447Z,1.13
2019-04-25T19:39:00.354Z,0.90
2019-04-25T19:41:35.428Z,1.00
2019-04-25T19:44:06.813Z,0.90
2019-04-25T19:46:47.069Z,0.97
2019-04-25T19:49:16.074Z,1.00
2019-04-25T19:51:45.156Z,1.27
2019-04-25T19:54:14.179Z,0.90
2019-04-25T19:56:43.846Z,1.00
2019-04-25T19:59:12.793Z,1.17
2019-04-25T20:01:42.658Z,0.80
2019-04-25T20:04:20.749Z,0.90
2019-04-25T20:07:11.921Z,1.10
2019-04-25T20:10:02.770Z,0.90
2019-04-25T20:12:38.722Z,1.20
2019-04-25T20:15:08.361Z,0.70
2019-04-25T20:17:37.539Z,1.07
2019-04-25T20:20:06.967Z,1.00
2019-04-25T20:22:35.600Z,0.90
2019-04-25T20:25:04.674Z,1.00
2019-04-25T20:27:33.831Z,0.80
2019-04-25T20:30:02.467Z,0.90
2019-04-25T20:32:31.190Z,1.20
2019-04-25T20:35:00.122Z,0.80
2019-04-25T20:37:28.758Z,0.90
2019-04-25T20:39:57.644Z,0.83
2019-04-25T20:42:26.653Z,1.00
2019-04-25T20:44:56.055Z,0.90
2019-04-25T20:47:25.537Z,1.10
2019-04-25T20:49:55.365Z,0.70
2019-04-25T20:52:24.472Z,0.93
2019-04-25T20:54:53.150Z,1.00
2019-04-25T20:57:21.787Z,1.17
2019-04-25T20:59:51.595Z,1.00
2019-04-25T21:02:20.542Z,0.80
2019-04-25T21:04:50.074Z,0.90
2019-04-25T21:07:18.767Z,0.90
2019-04-25T21:09:47.665Z,1.00
2019-04-25T21:12:16.277Z,1.10
2019-04-25T21:15:07.100Z,0.70
2019-04-25T21:17:43.852Z,0.90
2019-04-25T21:20:12.572Z,1.10
2019-04-25T21:22:41.185Z,0.70
2019-04-25T21:25:09.792Z,1.00
2019-04-25T21:27:38.764Z,0.93
2019-04-25T21:30:07.664Z,0.90
2019-04-25T21:32:52.298Z,0.90
2019-04-25T21:35:22.184Z,0.87
2019-04-25T21:37:52.125Z,1.00
2019-04-25T21:40:37.324Z,1.13
2019-04-25T21:43:16.434Z,0.83
2019-04-25T21:45:45.329Z,1.10
2019-04-25T21:48:14.756Z,0.80
2019-04-25T21:50:43.646Z,0.90
2019-04-25T21:53:12.267Z,0.97
2019-04-25T21:55:41.707Z,0.87
2019-04-25T21:58:10.880Z,0.80
2019-04-25T22:00:58.196Z,0.97
2019-04-25T22:03:27.101Z,1.03
2019-04-25T22:05:56.867Z,0.87
2019-04-25T22:08:25.877Z,0.80
2019-04-25T22:10:54.931Z,0.90
2019-04-25T22:13:24.860Z,0.90
2019-04-25T22:15:53.862Z,0.90
2019-04-25T22:18:23.910Z,1.07
2019-04-25T22:20:53.127Z,0.90
2019-04-25T22:23:22.286Z,0.80
2019-04-25T22:25:51.442Z,0.90
2019-04-25T22:28:20.350Z,1.03
2019-04-25T22:30:52.486Z,0.97
2019-04-25T22:33:49.226Z,0.80
2019-04-25T22:36:20.873Z,0.80
2019-04-25T22:39:08.969Z,0.90
2019-04-25T22:41:38.294Z,0.80
2019-04-25T22:44:07.916Z,1.03
2019-04-25T22:46:37.061Z,0.90
2019-04-25T22:49:06.206Z,0.90
2019-04-25T22:51:35.145Z,0.90
2019-04-25T22:54:05.343Z,0.90
2019-04-25T22:56:34.074Z,0.90
2019-04-25T22:59:02.938Z,1.00
2019-04-25T23:01:49.512Z,0.90
2019-04-25T23:04:26.097Z,1.07
2019-04-25T23:06:54.805Z,0.80
2019-04-25T23:09:23.402Z,1.10
2019-04-25T23:11:52.326Z,0.90
2019-04-25T23:14:22.004Z,0.80
2019-04-25T23:16:51.142Z,0.80
2019-04-25T23:19:20.286Z,0.90
2019-04-25T23:21:49.783Z,0.80
2019-04-25T23:24:20.282Z,0.80
2019-04-25T23:26:58.802Z,0.80
2019-04-25T23:29:27.975Z,1.20
2019-04-25T23:31:57.175Z,0.83
2019-04-25T23:34:26.808Z,1.00
2019-04-25T23:36:55.711Z,1.10
2019-04-25T23:39:24.806Z,0.83
2019-04-25T23:41:53.687Z,0.80
2019-04-25T23:44:22.395Z,0.90
2019-04-25T23:46:51.264Z,1.00
2019-04-25T23:49:20.138Z,1.00
2019-04-25T23:51:49.040Z,0.80
2019-04-25T23:54:17.925Z,0.80
2019-04-25T23:56:46.596Z,1.03
2019-04-25T23:59:15.791Z,0.70
